Time;durP1;ratioP1;P1;durP2;ratioP2;P2;SDS_P1;SDS_P2;PMS_P1;PMS_P2;Temp;Humidity;BMP_temperature;BMP_pressure;BME280_temperature;BME280_humidity;BME280_pressure;Samples;Min_cycle;Max_cycle;Signal;HPM_P1;HPM_P2
2022/06/27 00:01:58;;;;;;;6.90;6.20;;;;;;100774.08;;;;104616;1312;24210;-41
2022/06/27 00:04:31;;;;;;;8.10;6.10;;;;;;100773.75;;;;104665;1312;24455;-41
2022/06/27 00:07:07;;;;;;;7.30;6.50;;;;;;100772.56;;;;104677;1316;24653;-40
2022/06/27 00:09:40;;;;;;;7.10;6.30;;;;;;100774.59;;;;104633;1312;24471;-40
2022/06/27 00:12:13;;;;;;;8.20;6.90;;;;;;100771.62;;;;104676;1312;22582;-40
2022/06/27 00:14:45;;;;;;;7.70;6.80;;;;;;100772.45;;;;104657;1316;24256;-40
2022/06/27 00:17:17;;;;;;;9.00;6.70;;;;;;100773.17;;;;104669;1320;22568;-41
2022/06/27 00:19:50;;;;;;;7.20;6.30;;;;;;100774.83;;;;104646;1316;24157;-40
2022/06/27 00:22:23;;;;;;;7.50;6.80;;;;;;100776.51;;;;104653;1316;22598;-41
2022/06/27 00:24:56;;;;;;;8.80;7.40;;;;;;100776.65;;;;104672;1312;22633;-41
2022/06/27 00:27:28;;;;;;;6.60;6.00;;;;;;100776.14;;;;104682;1312;25364;-41
2022/06/27 00:30:00;;;;;;;7.70;6.90;;;;;;100775.98;;;;104661;1316;22756;-41
2022/06/27 00:32:34;;;;;;;7.60;6.60;;;;;;100776.71;;;;104646;1313;22572;-41
2022/06/27 00:35:09;;;;;;;7.50;6.40;;;;;;100779.48;;;;104683;1315;22580;-41
2022/06/27 00:37:42;;;;;;;8.20;6.80;;;;;;100778.42;;;;104649;1317;22813;-40
2022/06/27 00:40:14;;;;;;;;;;;;;;100781.00;;;;104669;1316;22545;-40
2022/06/27 00:42:47;;;;;;;9.50;6.60;;;;;;100784.47;;;;104694;1316;22585;-40
2022/06/27 00:45:19;;;;;;;7.20;6.30;;;;;;100782.45;;;;104659;1311;24458;-40
2022/06/27 00:47:52;;;;;;;9.40;7.00;;;;;;100783.96;;;;104651;1312;24456;-40
2022/06/27 00:50:27;;;;;;;9.20;6.50;;;;;;100780.84;;;;104655;1312;24726;-40
2022/06/27 00:53:00;;;;;;;7.80;7.10;;;;;;100779.61;;;;104682;1311;24481;-40
2022/06/27 00:55:35;;;;;;;7.40;6.70;;;;;;100778.78;;;;104608;1313;24177;-41
2022/06/27 00:58:08;;;;;;;8.30;6.90;;;;;;100782.45;;;;104597;1313;24240;-40
2022/06/27 01:00:41;;;;;;;7.70;6.90;;;;;;100785.31;;;;104618;1316;24197;-41
2022/06/27 01:03:13;;;;;;;7.90;6.80;;;;;;100783.01;;;;104632;1314;25188;-41
2022/06/27 01:05:52;;;;;;;8.00;7.20;;;;;;100781.15;;;;104632;1316;24155;-39
2022/06/27 01:08:26;;;;;;;7.80;7.00;;;;;;100784.35;;;;104650;1319;22578;-40
2022/06/27 01:10:59;;;;;;;7.60;6.90;;;;;;100782.61;;;;104634;1316;22574;-42
2022/06/27 01:13:32;;;;;;;8.10;7.20;;;;;;100785.98;;;;104662;1312;22557;-41
2022/06/27 01:16:03;;;;;;;;;;;;;;100785.27;;;;104697;1313;22563;-41
2022/06/27 01:18:37;;;;;;;7.80;7.00;;;;;;100779.95;;;;104629;1316;22707;-42
2022/06/27 01:21:14;;;;;;;8.10;7.30;;;;;;100782.66;;;;104632;1316;22566;-41
2022/06/27 01:23:46;;;;;;;8.00;7.10;;;;;;100781.42;;;;104641;1316;22582;-40
2022/06/27 01:26:20;;;;;;;8.20;7.20;;;;;;100780.48;;;;104624;1319;22569;-40
2022/06/27 01:28:51;;;;;;;;;;;;;;100779.52;;;;104647;1318;22548;-42
2022/06/27 01:31:24;;;;;;;7.70;7.00;;;;;;100780.11;;;;104653;1316;23025;-41
2022/06/27 01:33:57;;;;;;;7.50;6.80;;;;;;100781.38;;;;104639;1317;22647;-40
2022/06/27 01:36:43;;;;;;;;;;;;;;100779.17;;;;104654;1316;22567;-40
2022/06/27 01:39:18;;;;;;;8.40;7.50;;;;;;100778.10;;;;104656;1316;22560;-40
2022/06/27 01:41:56;;;;;;;7.50;6.80;;;;;;100774.48;;;;104635;1314;24125;-41
2022/06/27 01:44:33;;;;;;;8.00;6.90;;;;;;100773.56;;;;104497;1315;24394;-40
2022/06/27 01:47:11;;;;;;;8.80;7.40;;;;;;100771.02;;;;104666;1314;25109;-40
2022/06/27 01:49:44;;;;;;;8.10;7.30;;;;;;100769.21;;;;104652;1316;22582;-40
2022/06/27 01:52:19;;;;;;;8.10;7.30;;;;;;100768.55;;;;104661;1314;24578;-40
2022/06/27 01:54:52;;;;;;;7.90;7.20;;;;;;100767.75;;;;104653;1316;22592;-40
2022/06/27 01:57:25;;;;;;;9.20;7.40;;;;;;100768.52;;;;104659;1312;22575;-41
2022/06/27 01:59:58;;;;;;;7.90;7.10;;;;;;100770.08;;;;104652;1317;23679;-41
2022/06/27 02:02:31;;;;;;;7.60;6.90;;;;;;100770.05;;;;104616;1317;22557;-41
2022/06/27 02:05:04;;;;;;;7.90;6.90;;;;;;100769.77;;;;104641;1312;24135;-41
2022/06/27 02:07:35;;;;;;;;;;;;;;100768.27;;;;104637;1317;22540;-40
2022/06/27 02:10:09;;;;;;;10.90;7.70;;;;;;100771.55;;;;104647;1314;22654;-40
2022/06/27 02:12:43;;;;;;;8.40;7.60;;;;;;100773.81;;;;104659;1316;22582;-41
2022/06/27 02:15:15;;;;;;;8.30;7.60;;;;;;100776.58;;;;104669;1312;22564;-40
2022/06/27 02:17:48;;;;;;;8.30;7.50;;;;;;100776.23;;;;104651;1316;23967;-41
2022/06/27 02:20:21;;;;;;;9.10;7.80;;;;;;100775.00;;;;104694;1312;25203;-41
2022/06/27 02:22:55;;;;;;;8.70;7.30;;;;;;100774.73;;;;104664;1311;22562;-41
2022/06/27 02:25:29;;;;;;;8.60;7.80;;;;;;100776.68;;;;104644;1317;24757;-41
2022/06/27 02:28:02;;;;;;;8.80;7.80;;;;;;100777.95;;;;104659;1316;22769;-41
2022/06/27 02:30:35;;;;;;;8.10;7.30;;;;;;100780.98;;;;104623;1312;25912;-41
2022/06/27 02:33:07;;;;;;;;;;;;;;100782.81;;;;104652;1314;22882;-41
2022/06/27 02:35:39;;;;;;;8.70;7.80;;;;;;100784.84;;;;104671;1316;22586;-41
2022/06/27 02:38:13;;;;;;;8.10;7.30;;;;;;100786.69;;;;104670;1312;24421;-41
2022/06/27 02:40:49;;;;;;;8.10;7.30;;;;;;100785.77;;;;104678;1312;22573;-42
2022/06/27 02:43:22;;;;;;;7.80;7.10;;;;;;100786.63;;;;104603;1313;22627;-40
2022/06/27 02:45:56;;;;;;;8.70;7.60;;;;;;100791.73;;;;104628;1317;22629;-41
2022/06/27 02:48:31;;;;;;;8.00;7.20;;;;;;100793.05;;;;104527;1313;24818;-41
2022/06/27 02:51:09;;;;;;;8.00;7.20;;;;;;100798.15;;;;104633;1316;24249;-41
2022/06/27 02:53:46;;;;;;;8.30;7.20;;;;;;100797.38;;;;104658;1316;22568;-41
2022/06/27 02:56:24;;;;;;;9.60;7.30;;;;;;100795.86;;;;104523;1313;24402;-41
2022/06/27 02:59:04;;;;;;;7.80;6.90;;;;;;100796.91;;;;104670;1316;22595;-41
2022/06/27 03:01:40;;;;;;;8.60;7.60;;;;;;100799.73;;;;104507;1317;22688;-41
2022/06/27 03:04:12;;;;;;;8.00;7.10;;;;;;100801.13;;;;104634;1314;24493;-41
2022/06/27 03:06:46;;;;;;;7.60;6.90;;;;;;100805.55;;;;104637;1317;22795;-40
2022/06/27 03:09:18;;;;;;;8.20;7.40;;;;;;100806.20;;;;104622;1317;24022;-41
2022/06/27 03:11:51;;;;;;;7.90;7.20;;;;;;100807.41;;;;104651;1316;24242;-41
2022/06/27 03:14:23;;;;;;;8.60;7.60;;;;;;100806.68;;;;104660;1316;22579;-41
2022/06/27 03:16:55;;;;;;;8.40;7.60;;;;;;100809.02;;;;104606;1314;22571;-41
2022/06/27 03:19:27;;;;;;;7.60;6.90;;;;;;100808.27;;;;104647;1312;22624;-41
2022/06/27 03:22:00;;;;;;;8.20;7.40;;;;;;100809.30;;;;104500;1314;22560;-41
2022/06/27 03:24:32;;;;;;;9.60;8.50;;;;;;100806.88;;;;104669;1316;22533;-42
2022/06/27 03:27:11;;;;;;;8.50;7.20;;;;;;100806.59;;;;104666;1314;22554;-41
2022/06/27 03:29:43;;;;;;;8.50;7.70;;;;;;100807.51;;;;104623;1317;24211;-41
2022/06/27 03:32:15;;;;;;;8.40;7.50;;;;;;100806.89;;;;104673;1323;22559;-41
2022/06/27 03:34:48;;;;;;;8.30;7.50;;;;;;100811.92;;;;104661;1314;22611;-41
2022/06/27 03:37:20;;;;;;;;;;;;;;100815.41;;;;104670;1312;23080;-41
2022/06/27 03:39:52;;;;;;;9.00;8.00;;;;;;100818.34;;;;104626;1312;22602;-40
2022/06/27 03:42:24;;;;;;;9.20;7.80;;;;;;100819.34;;;;104635;1312;24493;-41
2022/06/27 03:44:56;;;;;;;8.00;7.20;;;;;;100819.69;;;;104638;1316;22563;-41
2022/06/27 03:47:31;;;;;;;8.60;7.80;;;;;;100820.05;;;;104658;1313;22570;-41
2022/06/27 03:50:05;;;;;;;8.60;7.70;;;;;;100819.54;;;;104691;1312;22615;-40
2022/06/27 03:52:35;;;;;;;;;;;;;;100819.78;;;;104675;1317;22557;-40
2022/06/27 03:55:10;;;;;;;8.90;7.70;;;;;;100820.48;;;;104651;1314;23839;-40
2022/06/27 03:57:50;;;;;;;8.30;7.50;;;;;;100818.18;;;;104671;1316;22557;-41
2022/06/27 04:00:26;;;;;;;8.60;7.40;;;;;;100816.33;;;;104670;1316;22588;-40
2022/06/27 04:02:59;;;;;;;9.40;8.50;;;;;;100819.32;;;;104656;1314;24372;-40
2022/06/27 04:05:31;;;;;;;8.00;7.20;;;;;;100816.79;;;;104637;1313;24429;-39
2022/06/27 04:08:07;;;;;;;8.60;7.80;;;;;;100816.61;;;;104669;1312;22541;-41
2022/06/27 04:10:40;;;;;;;8.60;7.80;;;;;;100813.89;;;;104518;1319;24251;-40
2022/06/27 04:13:12;;;;;;;8.80;7.90;;;;;;100812.77;;;;104665;1316;22561;-42
2022/06/27 04:15:44;;;;;;;9.60;8.60;;;;;;100812.11;;;;104637;1312;25194;-40
2022/06/27 04:18:17;;;;;;;8.30;7.30;;;;;;100810.06;;;;104623;1312;22557;-41
2022/06/27 04:20:49;;;;;;;8.50;7.60;;;;;;100808.27;;;;104648;1312;24464;-41
2022/06/27 04:23:21;;;;;;;8.70;7.80;;;;;;100809.08;;;;104627;1312;25359;-41
2022/06/27 04:25:55;;;;;;;8.90;8.00;;;;;;100805.95;;;;104642;1316;22566;-40
2022/06/27 04:28:30;;;;;;;8.20;7.40;;;;;;100808.31;;;;104651;1313;22563;-40
2022/06/27 04:31:03;;;;;;;8.30;7.40;;;;;;100813.77;;;;104652;1314;22584;-40
2022/06/27 04:33:35;;;;;;;8.40;6.50;;;;;;100818.83;;;;104500;1316;25901;-41
2022/06/27 04:36:09;;;;;;;8.20;7.30;;;;;;100818.73;;;;104657;1314;24243;-41
2022/06/27 04:38:42;;;;;;;8.50;7.70;;;;;;100816.55;;;;104688;1316;23488;-41
2022/06/27 04:41:16;;;;;;;8.40;7.60;;;;;;100821.16;;;;104610;1314;22609;-42
2022/06/27 04:43:49;;;;;;;8.00;7.20;;;;;;100823.13;;;;104672;1316;22565;-42
2022/06/27 04:46:21;;;;;;;;;;;;;;100824.27;;;;104691;1316;22537;-42
2022/06/27 04:48:53;;;;;;;8.10;7.40;;;;;;100827.42;;;;104668;1312;22595;-41
2022/06/27 04:51:25;;;;;;;7.30;6.60;;;;;;100824.73;;;;104641;1313;24353;-40
2022/06/27 04:53:58;;;;;;;8.00;7.20;;;;;;100823.37;;;;104646;1323;24212;-41
2022/06/27 04:56:30;;;;;;;8.70;7.80;;;;;;100825.91;;;;104665;1316;24244;-42
2022/06/27 04:59:05;;;;;;;9.70;7.40;;;;;;100828.80;;;;104646;1317;22592;-41
2022/06/27 05:01:38;;;;;;;7.90;7.00;;;;;;100833.58;;;;104637;1316;24229;-41
2022/06/27 05:04:10;;;;;;;8.20;7.30;;;;;;100832.34;;;;104588;1313;25176;-40
2022/06/27 05:06:42;;;;;;;7.90;7.10;;;;;;100832.20;;;;104639;1316;22624;-41
2022/06/27 05:09:15;;;;;;;7.40;6.70;;;;;;100835.40;;;;104645;1316;22554;-41
2022/06/27 05:11:50;;;;;;;8.30;7.10;;;;;;100833.61;;;;104560;1316;22563;-41
2022/06/27 05:14:24;;;;;;;7.80;7.00;;;;;;100836.09;;;;104677;1313;22661;-41
2022/06/27 05:17:00;;;;;;;7.10;6.40;;;;;;100837.23;;;;104367;1316;406007;-41
2022/06/27 05:19:32;;;;;;;7.90;7.10;;;;;;100840.10;;;;104662;1313;22562;-42
2022/06/27 05:22:07;;;;;;;7.80;7.00;;;;;;100844.02;;;;104638;1316;22559;-41
2022/06/27 05:24:39;;;;;;;6.70;6.00;;;;;;100843.66;;;;104598;1317;22574;-41
2022/06/27 05:27:12;;;;;;;7.30;6.30;;;;;;100845.53;;;;104628;1313;24297;-41
2022/06/27 05:29:44;;;;;;;7.30;6.20;;;;;;100848.34;;;;104671;1316;22790;-41
2022/06/27 05:32:16;;;;;;;7.00;6.30;;;;;;100854.05;;;;104636;1317;22556;-41
2022/06/27 05:34:49;;;;;;;7.10;6.00;;;;;;100855.42;;;;104672;1312;24342;-41
2022/06/27 05:37:20;;;;;;;;;;;;;;100856.49;;;;104665;1316;22542;-41
2022/06/27 05:39:53;;;;;;;7.00;6.30;;;;;;100859.56;;;;104659;1312;24190;-41
2022/06/27 05:42:25;;;;;;;6.80;6.10;;;;;;100864.15;;;;104637;1314;26225;-41
2022/06/27 05:44:58;;;;;;;7.50;6.70;;;;;;100866.59;;;;104636;1312;24416;-40
2022/06/27 05:47:31;;;;;;;7.40;6.50;;;;;;100865.84;;;;104643;1311;22652;-42
2022/06/27 05:50:03;;;;;;;;;;;;;;100863.35;;;;104597;1314;24631;-41
2022/06/27 05:52:39;;;;;;;6.70;6.00;;;;;;100862.02;;;;104672;1311;22607;-40
2022/06/27 05:55:13;;;;;;;8.40;6.00;;;;;;100861.66;;;;104656;1311;22589;-41
2022/06/27 05:57:45;;;;;;;6.90;6.30;;;;;;100857.80;;;;104674;1316;22564;-41
2022/06/27 06:00:23;;;;;;;7.10;5.80;;;;;;100860.50;;;;104638;1316;22539;-41
2022/06/27 06:02:57;;;;;;;8.10;6.20;;;;;;100857.63;;;;104666;1311;22574;-42
2022/06/27 06:05:32;;;;;;;6.80;6.00;;;;;;100858.10;;;;104603;1313;25216;-41
2022/06/27 06:08:07;;;;;;;6.70;6.00;;;;;;100857.94;;;;104593;1314;25816;-41
2022/06/27 06:10:40;;;;;;;9.20;5.80;;;;;;100860.33;;;;104654;1312;22986;-43
2022/06/27 06:13:13;;;;;;;7.20;5.70;;;;;;100857.30;;;;104683;1317;22587;-41
2022/06/27 06:15:45;;;;;;;6.60;5.90;;;;;;100855.70;;;;104615;1316;22580;-41
2022/06/27 06:18:18;;;;;;;6.10;5.20;;;;;;100862.52;;;;104613;1316;22634;-40
2022/06/27 06:20:50;;;;;;;6.50;5.40;;;;;;100864.63;;;;104513;1314;22595;-40
2022/06/27 06:23:24;;;;;;;7.40;5.40;;;;;;100869.95;;;;104661;1312;22579;-40
2022/06/27 06:25:56;;;;;;;8.10;5.40;;;;;;100870.33;;;;104669;1312;24319;-41
2022/06/27 06:28:31;;;;;;;6.10;4.80;;;;;;100872.39;;;;104665;1312;22587;-41
2022/06/27 06:31:07;;;;;;;6.00;4.90;;;;;;100870.03;;;;104642;1311;23659;-41
2022/06/27 06:33:40;;;;;;;7.00;5.00;;;;;;100869.58;;;;104637;1316;24182;-41
2022/06/27 06:36:12;;;;;;;5.90;5.00;;;;;;100871.69;;;;104631;1312;22564;-42
2022/06/27 06:38:45;;;;;;;6.70;5.50;;;;;;100872.52;;;;104664;1312;24451;-41
2022/06/27 06:41:26;;;;;;;5.80;5.00;;;;;;100870.83;;;;104596;1317;24257;-42
2022/06/27 06:43:59;;;;;;;6.50;4.80;;;;;;100875.31;;;;104664;1312;24187;-41
2022/06/27 06:46:32;;;;;;;5.90;4.40;;;;;;100876.34;;;;104661;1312;25221;-41
2022/06/27 06:49:06;;;;;;;6.20;4.50;;;;;;100874.10;;;;104644;1312;25287;-41
2022/06/27 06:51:42;;;;;;;6.00;4.80;;;;;;100876.68;;;;104662;1314;25251;-42
2022/06/27 06:54:15;;;;;;;6.40;4.70;;;;;;100872.62;;;;104659;1316;22561;-41
2022/06/27 06:56:49;;;;;;;;;;;;;;100874.42;;;;104682;1311;25343;-41
2022/06/27 06:59:22;;;;;;;6.40;4.30;;;;;;100877.30;;;;104673;1316;22562;-41
2022/06/27 07:01:54;;;;;;;6.10;4.10;;;;;;100875.23;;;;104628;1316;22561;-42
2022/06/27 07:04:30;;;;;;;6.20;4.60;;;;;;100878.53;;;;104659;1312;22579;-41
2022/06/27 07:07:05;;;;;;;7.00;4.40;;;;;;100874.57;;;;104627;1312;23025;-42
2022/06/27 07:12:46;;;;;;;6.50;4.80;;;;;;100868.06;;;;104389;1319;24218;-41
2022/06/27 07:15:18;;;;;;;5.90;4.50;;;;;;100865.70;;;;104601;1319;22553;-45
2022/06/27 07:17:53;;;;;;;5.10;4.50;;;;;;100868.29;;;;104238;1318;40849;-41
2022/06/27 07:20:30;;;;;;;6.50;4.80;;;;;;100865.29;;;;104582;1315;22557;-42
2022/06/27 07:23:02;;;;;;;5.30;4.10;;;;;;100862.10;;;;104502;1315;31618;-38
2022/06/27 07:25:37;;;;;;;5.80;4.40;;;;;;100865.05;;;;104633;1314;25302;-39
2022/06/27 07:28:15;;;;;;;5.10;4.20;;;;;;100861.73;;;;104632;1316;23871;-38
2022/06/27 07:30:50;;;;;;;5.10;4.00;;;;;;100860.85;;;;104659;1313;22569;-38
2022/06/27 07:33:22;;;;;;;4.90;4.10;;;;;;100860.06;;;;104688;1314;25367;-43
2022/06/27 07:35:54;;;;;;;5.90;4.20;;;;;;100859.40;;;;104632;1311;22600;-45
2022/06/27 07:38:26;;;;;;;5.10;4.00;;;;;;100859.30;;;;104689;1312;24478;-44
2022/06/27 07:41:00;;;;;;;5.00;4.00;;;;;;100858.80;;;;104671;1312;25357;-43
2022/06/27 07:43:34;;;;;;;4.60;3.60;;;;;;100857.98;;;;104650;1311;22977;-43
2022/06/27 07:46:06;;;;;;;5.00;3.80;;;;;;100861.05;;;;104626;1312;23871;-43
2022/06/27 07:48:41;;;;;;;6.20;3.90;;;;;;100856.98;;;;104663;1315;22674;-44
2022/06/27 07:51:16;;;;;;;5.30;3.70;;;;;;100852.17;;;;104665;1317;22556;-44
2022/06/27 07:53:51;;;;;;;5.40;3.80;;;;;;100853.60;;;;104635;1313;24499;-44
2022/06/27 07:56:26;;;;;;;5.20;3.70;;;;;;100855.73;;;;104664;1311;24286;-43
2022/06/27 07:59:00;;;;;;;5.60;3.70;;;;;;100852.53;;;;104668;1313;24393;-43
2022/06/27 08:01:35;;;;;;;5.50;3.80;;;;;;100850.21;;;;104448;1312;23051;-45
2022/06/27 08:04:08;;;;;;;5.10;3.70;;;;;;100842.63;;;;104628;1312;24112;-45
2022/06/27 08:06:42;;;;;;;5.10;3.40;;;;;;100851.35;;;;104503;1314;47836;-42
2022/06/27 08:09:14;;;;;;;4.60;3.10;;;;;;100842.61;;;;104605;1314;22622;-43
2022/06/27 08:11:50;;;;;;;4.90;3.30;;;;;;100845.61;;;;104650;1317;24214;-41
2022/06/27 08:14:25;;;;;;;4.20;3.30;;;;;;100845.38;;;;104614;1314;24378;-43
2022/06/27 08:17:00;;;;;;;5.60;3.30;;;;;;100842.17;;;;104574;1318;22567;-43
2022/06/27 08:19:32;;;;;;;5.40;3.40;;;;;;100843.95;;;;104518;1317;25368;-45
2022/06/27 08:22:06;;;;;;;5.50;3.30;;;;;;100845.46;;;;104611;1316;22577;-41
2022/06/27 08:24:41;;;;;;;5.40;3.80;;;;;;100840.29;;;;104586;1315;25202;-42
2022/06/27 08:27:13;;;;;;;5.40;3.50;;;;;;100841.14;;;;104561;1318;22572;-38
2022/06/27 08:29:45;;;;;;;7.00;3.40;;;;;;100838.30;;;;104570;1318;22735;-40
2022/06/27 08:32:21;;;;;;;4.90;3.20;;;;;;100838.52;;;;104571;1318;23792;-44
2022/06/27 08:34:57;;;;;;;4.90;3.60;;;;;;100837.33;;;;104562;1318;22565;-38
2022/06/27 08:37:30;;;;;;;5.40;3.60;;;;;;100834.66;;;;104571;1317;23002;-38
2022/06/27 08:40:07;;;;;;;5.40;3.40;;;;;;100838.27;;;;104593;1313;22563;-37
2022/06/27 08:42:40;;;;;;;5.00;3.70;;;;;;100829.21;;;;104605;1314;22585;-38
2022/06/27 08:45:14;;;;;;;4.60;3.50;;;;;;100826.39;;;;104581;1314;22564;-43
2022/06/27 08:47:47;;;;;;;5.20;3.20;;;;;;100816.45;;;;104617;1317;22573;-41
2022/06/27 08:50:20;;;;;;;4.50;3.40;;;;;;100812.92;;;;104610;1320;26005;-40
2022/06/27 08:52:58;;;;;;;4.20;3.20;;;;;;100816.94;;;;104623;1317;24231;-41
2022/06/27 08:55:34;;;;;;;5.00;3.10;;;;;;100815.64;;;;104612;1317;24317;-42
2022/06/27 08:58:12;;;;;;;4.70;3.60;;;;;;100820.79;;;;104623;1319;22567;-43
2022/06/27 09:00:48;;;;;;;4.70;3.20;;;;;;100814.09;;;;104616;1313;22553;-41
2022/06/27 09:03:24;;;;;;;4.10;3.00;;;;;;100815.67;;;;104588;1318;22575;-41
2022/06/27 09:06:00;;;;;;;3.80;2.80;;;;;;100809.45;;;;104603;1314;24342;-42
2022/06/27 09:08:39;;;;;;;4.40;3.00;;;;;;100807.84;;;;104568;1314;24630;-40
2022/06/27 09:11:11;;;;;;;4.70;3.20;;;;;;100802.73;;;;104561;1316;22597;-39
2022/06/27 09:13:46;;;;;;;4.10;3.10;;;;;;100801.08;;;;104598;1315;24412;-43
2022/06/27 09:16:20;;;;;;;4.80;3.10;;;;;;100805.13;;;;104582;1314;22572;-37
2022/06/27 09:18:55;;;;;;;4.70;3.10;;;;;;100797.92;;;;104624;1313;24343;-37
2022/06/27 09:21:28;;;;;;;5.70;3.30;;;;;;100798.26;;;;104618;1314;24255;-42
2022/06/27 09:24:01;;;;;;;;;;;;;;100795.30;;;;104672;1316;22554;-43
2022/06/27 09:26:36;;;;;;;5.40;3.40;;;;;;100785.90;;;;104638;1314;23767;-41
2022/06/27 09:29:12;;;;;;;6.00;3.20;;;;;;100784.86;;;;104641;1316;22579;-42
2022/06/27 09:31:46;;;;;;;4.20;2.90;;;;;;100771.25;;;;104635;1316;22563;-41
2022/06/27 09:34:25;;;;;;;4.50;3.10;;;;;;100783.25;;;;104636;1313;22576;-43
2022/06/27 09:37:01;;;;;;;4.10;3.00;;;;;;100773.94;;;;104587;1317;24192;-43
2022/06/27 09:39:37;;;;;;;4.40;2.90;;;;;;100781.80;;;;104617;1316;24193;-42
2022/06/27 09:42:13;;;;;;;4.30;2.80;;;;;;100772.98;;;;104618;1313;25785;-44
2022/06/27 09:44:47;;;;;;;3.60;2.60;;;;;;100773.81;;;;104575;1316;24211;-40
2022/06/27 09:47:21;;;;;;;4.00;2.70;;;;;;100779.42;;;;104606;1314;25202;-43
2022/06/27 09:49:56;;;;;;;4.20;2.70;;;;;;100776.57;;;;104609;1314;25284;-44
2022/06/27 09:52:29;;;;;;;5.40;3.10;;;;;;100767.73;;;;104595;1317;22572;-45
2022/06/27 09:55:06;;;;;;;;;;;;;;100768.39;;;;104583;1314;24251;-46
2022/06/27 09:57:39;;;;;;;4.60;2.90;;;;;;100763.04;;;;104573;1317;24386;-46
2022/06/27 10:00:15;;;;;;;4.20;2.90;;;;;;100769.70;;;;104587;1318;22566;-46
2022/06/27 10:02:48;;;;;;;4.50;2.80;;;;;;100766.79;;;;104594;1317;22676;-46
2022/06/27 10:05:22;;;;;;;4.20;2.70;;;;;;100768.90;;;;104553;1318;23818;-37
2022/06/27 10:08:04;;;;;;;4.50;3.00;;;;;;100773.66;;;;104552;1314;25356;-41
2022/06/27 10:11:09;;;;;;;4.80;3.00;;;;;;100774.85;;;;104596;1314;22572;-39
2022/06/27 10:13:46;;;;;;;4.50;3.20;;;;;;100764.02;;;;104559;1319;24363;-48
2022/06/27 10:16:18;;;;;;;4.60;3.20;;;;;;100768.59;;;;104578;1314;24843;-39
2022/06/27 10:19:05;;;;;;;4.40;3.10;;;;;;100759.81;;;;104595;1317;24183;-47
2022/06/27 10:21:43;;;;;;;4.50;3.10;;;;;;100756.17;;;;104598;1318;24338;-43
2022/06/27 10:24:37;;;;;;;3.80;3.00;;;;;;100752.95;;;;104581;1317;24181;-41
2022/06/27 10:27:30;;;;;;;4.50;3.60;;;;;;100756.71;;;;104550;1317;24274;-43
2022/06/27 10:30:38;;;;;;;4.70;3.10;;;;;;100757.95;;;;104619;1317;24218;-45
2022/06/27 10:33:46;;;;;;;4.10;3.00;;;;;;100762.02;;;;104489;1316;25277;-44
2022/06/27 10:36:21;;;;;;;5.20;3.40;;;;;;100767.27;;;;104592;1318;22622;-43
2022/06/27 10:38:57;;;;;;;4.80;3.50;;;;;;100770.91;;;;104588;1314;22563;-43
2022/06/27 10:41:43;;;;;;;5.10;3.50;;;;;;100770.15;;;;104599;1319;24228;-43
2022/06/27 10:44:35;;;;;;;5.90;3.40;;;;;;100766.05;;;;104591;1314;22574;-43
2022/06/27 10:47:08;;;;;;;4.50;3.60;;;;;;100763.27;;;;104558;1314;24111;-45
2022/06/27 10:49:40;;;;;;;4.80;3.40;;;;;;100762.13;;;;104578;1317;22577;-46
2022/06/27 10:52:35;;;;;;;4.60;3.10;;;;;;100764.71;;;;104568;1314;22602;-43
2022/06/27 10:58:21;;;;;;;5.60;3.60;;;;;;100762.23;;;;101557;1355;557247;-44
2022/06/27 11:01:14;;;;;;;4.70;3.70;;;;;;100760.27;;;;104379;1324;22573;-41
2022/06/27 11:03:47;;;;;;;5.40;3.90;;;;;;100763.56;;;;104394;1318;24121;-45
2022/06/27 11:06:26;;;;;;;4.90;3.60;;;;;;100755.95;;;;104374;1323;22608;-38
2022/06/27 11:08:59;;;;;;;4.80;3.40;;;;;;100758.99;;;;104356;1317;24269;-44
2022/06/27 11:11:34;;;;;;;4.20;3.40;;;;;;100753.95;;;;104166;1315;378642;-40
2022/06/27 11:14:07;;;;;;;5.90;4.00;;;;;;100747.77;;;;104954;1309;25191;-43
2022/06/27 11:16:40;;;;;;;5.20;3.40;;;;;;100754.27;;;;104966;1308;24265;-42
2022/06/27 11:22:01;;;;;;;4.50;3.40;;;;;;100739.04;;;;104923;1309;24349;-41
2022/06/27 11:24:35;;;;;;;4.70;3.50;;;;;;100736.02;;;;104909;1313;24238;-43
2022/06/27 11:27:09;;;;;;;4.70;3.70;;;;;;100729.28;;;;104936;1315;23426;-38
2022/06/27 11:32:33;;;;;;;4.40;3.50;;;;;;100722.73;;;;104909;1317;22557;-37
2022/06/27 11:35:08;;;;;;;4.50;3.70;;;;;;100723.48;;;;104915;1317;25433;-38
2022/06/27 11:37:43;;;;;;;5.20;3.70;;;;;;100722.96;;;;104926;1309;24535;-40
2022/06/27 11:40:16;;;;;;;4.70;3.60;;;;;;100720.41;;;;104917;1312;22591;-42
2022/06/27 11:42:48;;;;;;;4.70;3.60;;;;;;100719.15;;;;104927;1308;22576;-40
2022/06/27 11:45:20;;;;;;;4.70;3.20;;;;;;100719.40;;;;104929;1309;22570;-38
2022/06/27 11:47:53;;;;;;;5.90;3.30;;;;;;100718.02;;;;104954;1308;22889;-39
2022/06/27 11:50:25;;;;;;;4.50;3.40;;;;;;100715.30;;;;104800;1312;22595;-37
2022/06/27 11:53:02;;;;;;;4.40;3.40;;;;;;100712.86;;;;104963;1309;25887;-38
2022/06/27 11:55:34;;;;;;;4.70;3.70;;;;;;100711.48;;;;104954;1309;25442;-38
2022/06/27 11:58:06;;;;;;;4.20;3.10;;;;;;100706.19;;;;104799;1313;25669;-49
2022/06/27 12:00:40;;;;;;;5.00;3.30;;;;;;100704.08;;;;104840;1313;22748;-44
2022/06/27 12:03:14;;;;;;;5.00;3.50;;;;;;100701.91;;;;104841;1313;22552;-41
2022/06/27 12:05:47;;;;;;;4.70;3.30;;;;;;100698.21;;;;104770;1314;22598;-40
2022/06/27 12:08:19;;;;;;;5.20;3.20;;;;;;100698.38;;;;104821;1307;22668;-39
2022/06/27 12:13:43;;;;;;;5.10;3.40;;;;;;100690.48;;;;104809;1313;22557;-42
2022/06/27 12:16:16;;;;;;;5.10;3.50;;;;;;100698.42;;;;104831;1313;22572;-45
2022/06/27 12:18:51;;;;;;;4.30;3.20;;;;;;100695.02;;;;104697;1313;22570;-46
2022/06/27 12:21:25;;;;;;;6.10;3.60;;;;;;100690.02;;;;104701;1311;25460;-45
2022/06/27 12:24:00;;;;;;;4.70;3.50;;;;;;100690.64;;;;104716;1311;24397;-45
2022/06/27 12:26:36;;;;;;;4.30;3.60;;;;;;100688.85;;;;104695;1311;24171;-45
2022/06/27 12:29:10;;;;;;;4.30;3.20;;;;;;100685.94;;;;104714;1311;22702;-44
2022/06/27 12:31:43;;;;;;;4.50;3.20;;;;;;100682.77;;;;104819;1316;22621;-44
2022/06/27 12:34:16;;;;;;;5.50;3.00;;;;;;100679.27;;;;104840;1314;22620;-47
2022/06/27 12:36:48;;;;;;;4.60;3.30;;;;;;100688.48;;;;104898;1311;24110;-48
2022/06/27 12:39:23;;;;;;;4.40;3.30;;;;;;100683.34;;;;104874;1311;23127;-48
2022/06/27 12:41:56;;;;;;;4.40;3.50;;;;;;100682.38;;;;104845;1313;22968;-47
2022/06/27 12:44:28;;;;;;;4.20;3.20;;;;;;100679.73;;;;104833;1316;22655;-47
2022/06/27 12:47:00;;;;;;;4.10;3.40;;;;;;100682.29;;;;104719;1320;24239;-46
2022/06/27 12:49:36;;;;;;;4.10;3.30;;;;;;100682.73;;;;104840;1310;25383;-47
2022/06/27 12:52:09;;;;;;;4.80;2.90;;;;;;100675.80;;;;104830;1313;22670;-48
2022/06/27 12:54:42;;;;;;;4.60;3.20;;;;;;100670.08;;;;104902;1313;23861;-48
2022/06/27 12:57:14;;;;;;;4.90;3.10;;;;;;100669.50;;;;104845;1314;22552;-47
2022/06/27 12:59:47;;;;;;;4.90;3.60;;;;;;100675.22;;;;104768;1313;22689;-43
2022/06/27 13:02:19;;;;;;;4.80;3.70;;;;;;100671.80;;;;104803;1310;25666;-45
2022/06/27 13:04:51;;;;;;;5.60;4.30;;;;;;100669.45;;;;104806;1309;24288;-46
2022/06/27 13:07:23;;;;;;;5.00;4.10;;;;;;100662.64;;;;104817;1313;22576;-45
2022/06/27 13:09:55;;;;;;;5.60;3.70;;;;;;100655.41;;;;104793;1310;24245;-43
2022/06/27 13:12:28;;;;;;;5.10;4.20;;;;;;100660.50;;;;104984;1307;24301;-43
2022/06/27 13:15:00;;;;;;;5.20;4.20;;;;;;100658.73;;;;104979;1307;23031;-39
2022/06/27 13:17:32;;;;;;;6.20;4.50;;;;;;100662.73;;;;105007;1313;22556;-43
2022/06/27 13:20:09;;;;;;;6.70;4.60;;;;;;100658.09;;;;105044;1308;25428;-43
2022/06/27 13:22:42;;;;;;;7.50;4.70;;;;;;100654.27;;;;105052;1310;22552;-37
2022/06/27 13:25:18;;;;;;;5.70;4.30;;;;;;100653.20;;;;104990;1315;25422;-37
2022/06/27 13:27:51;;;;;;;6.00;4.30;;;;;;100653.64;;;;105003;1305;22599;-43
2022/06/27 13:30:24;;;;;;;5.70;4.50;;;;;;100654.44;;;;105056;1311;22561;-44
2022/06/27 13:32:57;;;;;;;5.50;4.30;;;;;;100654.43;;;;105008;1308;22594;-42
2022/06/27 13:35:28;;;;;;;;;;;;;;100648.14;;;;105053;1310;22535;-43
2022/06/27 13:38:00;;;;;;;6.00;4.60;;;;;;100648.77;;;;104973;1307;25197;-42
2022/06/27 13:40:35;;;;;;;5.20;4.40;;;;;;100650.41;;;;104972;1315;22598;-44
2022/06/27 13:43:09;;;;;;;6.20;4.60;;;;;;100643.98;;;;105002;1311;22560;-41